This is the latest recevied weather packets stored in our database for station/object K5NAN. If no packets are shown the sender has not sent any weather packets the latest 10 day(s).
| Time | Temp. | Humidity | Pressure | Rain* | Wind** | Luminosity | Snow |
|---|---|---|---|---|---|---|---|
| 1777643365 | 12.78° C | 82% | 1015.8 hPa | 0 mm | - | 84 W/m² | - |
| 1777643062 | 12.78° C | 83% | 1015.8 hPa | 0 mm | - | 69 W/m² | - |
| 1777642758 | 12.22° C | 83% | 1016 hPa | 0 mm | - | 67 W/m² | - |
| 1777642455 | 12.22° C | 85% | 1016.1 hPa | 0 mm | - | 59 W/m² | - |
| 1777642152 | 12.22° C | 85% | 1016.4 hPa | 0 mm | - | 39 W/m² | - |
| 1777641849 | 12.22° C | 85% | 1016.7 hPa | 0 mm | - | 23 W/m² | - |
| 1777641543 | 12.22° C | 85% | 1016.5 hPa | 0 mm | - | 25 W/m² | - |
| 1777641238 | 12.22° C | 85% | 1016.4 hPa | 0 mm | - | 25 W/m² | - |
| 1777640935 | 12.22° C | 85% | 1016.3 hPa | 0 mm | - | 23 W/m² | - |
| 1777640632 | 12.22° C | 85% | 1016 hPa | 0 mm | - | 26 W/m² | - |
| 1777640328 | 12.22° C | 85% | 1016 hPa | 0 mm | - | 11 W/m² | - |
| 1777640025 | 12.22° C | 86% | 1015.6 hPa | 0 mm | - | 13 W/m² | - |
| 1777639722 | 12.22° C | 87% | 1015.4 hPa | 0 mm | - | 17 W/m² | - |
| 1777639420 | 12.22° C | 88% | 1015.1 hPa | 0 mm | - | 13 W/m² | - |
| 1777639119 | 12.22° C | 89% | 1015 hPa | 0 mm | - | 14 W/m² | - |
| 1777638818 | 12.22° C | 89% | 1015 hPa | 0 mm | - | 12 W/m² | - |
| 1777638518 | 12.22° C | 90% | 1014.9 hPa | 0 mm | - | 13 W/m² | - |
| 1777638215 | 12.22° C | 91% | 1014.9 hPa | 0 mm | - | 14 W/m² | - |
| 1777637911 | 12.22° C | 91% | 1014.9 hPa | 0 mm | - | 14 W/m² | - |
| 1777637607 | 12.22° C | 91% | 1014.6 hPa | 0 mm | - | 11 W/m² | - |
| 1777637305 | 12.22° C | 92% | 1014.6 hPa | 0 mm | - | 9 W/m² | - |
| 1777637002 | 12.22° C | 92% | 1014.4 hPa | 0 mm | - | 7 W/m² | - |
| 1777636697 | 12.22° C | 92% | 1014.4 hPa | 0 mm | - | 6 W/m² | - |
| 1777636393 | 12.78° C | 92% | 1014.2 hPa | 0 mm | - | 4 W/m² | - |
| 1777636088 | 12.78° C | 92% | 1014.5 hPa | 1.27 mm | - | 2 W/m² | - |
* Rain latest hour (hover to see other rain measurements)
** Current wind speed in m/s (hover to see current wind gust speed)